createdAt,value
2023-04-05T06:49:36.010Z,0.50
2023-04-05T06:50:35.372Z,0.50
2023-04-05T06:51:35.391Z,0.50
2023-04-05T06:52:35.710Z,0.50
2023-04-05T06:53:35.406Z,0.50
2023-04-05T06:54:35.476Z,0.50
2023-04-05T06:55:35.504Z,0.34
2023-04-05T06:56:35.534Z,0.34
2023-04-05T06:57:35.547Z,0.34
2023-04-05T06:58:35.557Z,0.34
2023-04-05T06:59:35.630Z,0.34
2023-04-05T07:00:35.581Z,0.34
2023-04-05T07:01:35.645Z,0.34
2023-04-05T07:02:36.306Z,0.34
2023-04-05T07:03:35.611Z,0.34
2023-04-05T07:04:35.589Z,0.34
2023-04-05T07:05:35.590Z,0.34
2023-04-05T07:06:35.582Z,0.34
2023-04-05T07:07:35.571Z,0.34
2023-04-05T07:08:35.592Z,0.34
2023-04-05T07:09:36.234Z,0.34
2023-04-05T07:10:35.631Z,0.34
2023-04-05T07:11:35.648Z,0.34
2023-04-05T07:12:35.650Z,0.34
2023-04-05T07:13:35.670Z,0.34
2023-04-05T07:14:35.714Z,0.34
2023-04-05T07:15:35.772Z,0.34
2023-04-05T07:16:35.872Z,0.34
2023-04-05T07:17:35.916Z,0.34
2023-04-05T07:18:35.921Z,0.34
2023-04-05T07:19:35.951Z,0.34
2023-04-05T07:20:36.253Z,0.34
2023-04-05T07:21:36.090Z,0.34
2023-04-05T07:22:36.137Z,0.34
2023-04-05T07:23:36.183Z,0.34
2023-04-05T07:24:36.208Z,0.34
2023-04-05T07:25:36.273Z,0.34
2023-04-05T07:26:36.353Z,0.34
2023-04-05T07:27:36.404Z,0.34
2023-04-05T07:28:36.411Z,0.34
2023-04-05T07:29:36.501Z,0.34
2023-04-05T07:30:36.550Z,0.34
2023-04-05T07:31:39.589Z,0.34
2023-04-05T07:32:36.636Z,0.34
2023-04-05T07:33:36.580Z,0.34
2023-04-05T07:34:36.595Z,0.34
2023-04-05T07:35:36.585Z,0.34
2023-04-05T07:36:37.378Z,0.34
2023-04-05T07:37:36.548Z,0.37
2023-04-05T07:38:36.554Z,0.45
2023-04-05T07:39:36.524Z,0.51
2023-04-05T07:40:36.546Z,0.50
2023-04-05T07:41:36.501Z,0.51
2023-04-05T07:42:36.532Z,0.50
2023-04-05T07:43:39.059Z,0.50
2023-04-05T07:44:36.487Z,0.51
2023-04-05T07:45:36.476Z,0.50
2023-04-05T07:46:36.539Z,0.50
2023-04-05T07:47:36.659Z,0.51
2023-04-05T07:48:36.495Z,0.50
2023-04-05T07:49:36.525Z,0.50
2023-04-05T07:50:36.520Z,0.50
2023-04-05T07:51:36.443Z,0.51
2023-04-05T07:52:36.417Z,0.50
2023-04-05T07:53:36.426Z,0.50
2023-04-05T07:54:36.446Z,0.51
2023-04-05T07:55:36.414Z,0.51
2023-04-05T07:56:37.038Z,0.51
2023-04-05T07:57:36.405Z,0.50
2023-04-05T07:58:36.428Z,0.51
2023-04-05T07:59:36.403Z,0.51
2023-04-05T08:00:36.374Z,0.50
2023-04-05T08:01:36.376Z,0.50
2023-04-05T08:02:36.435Z,0.51
2023-04-05T08:03:36.432Z,0.51
2023-04-05T08:04:41.048Z,0.50
2023-04-05T08:05:36.336Z,0.50
2023-04-05T08:06:36.362Z,0.50
2023-04-05T08:07:36.340Z,0.50
2023-04-05T08:08:37.441Z,0.50
2023-04-05T08:09:36.315Z,0.49
2023-04-05T08:10:36.333Z,0.50
2023-04-05T08:11:36.312Z,0.51
2023-04-05T08:12:38.786Z,0.51
2023-04-05T08:13:36.346Z,0.52
2023-04-05T08:14:36.275Z,0.51
2023-04-05T08:15:36.406Z,0.50
2023-04-05T08:16:36.287Z,0.51
2023-04-05T08:17:36.260Z,0.51
2023-04-05T08:18:36.235Z,0.51
2023-04-05T08:19:36.246Z,0.50
2023-04-05T08:20:36.213Z,0.51
2023-04-05T08:21:36.234Z,0.51
2023-04-05T08:22:36.206Z,0.51
2023-04-05T08:23:36.228Z,0.50
2023-04-05T08:24:36.237Z,0.51
2023-04-05T08:25:36.257Z,0.50
2023-04-05T08:26:36.225Z,0.51
2023-04-05T08:27:36.207Z,0.51
2023-04-05T08:28:36.165Z,0.51
2023-04-05T08:29:36.185Z,0.51
2023-04-05T08:30:36.193Z,0.51
2023-04-05T08:31:36.241Z,0.51
2023-04-05T08:32:36.168Z,0.50
2023-04-05T08:33:36.211Z,0.51
2023-04-05T08:34:36.131Z,0.51
2023-04-05T08:35:36.226Z,0.51
2023-04-05T08:36:36.107Z,0.51
2023-04-05T08:37:36.159Z,0.51
2023-04-05T08:38:36.091Z,0.51
2023-04-05T08:39:36.067Z,0.52
2023-04-05T08:40:36.085Z,0.52
2023-04-05T08:41:36.081Z,0.52
2023-04-05T08:42:36.087Z,0.51
2023-04-05T08:43:36.100Z,0.51
2023-04-05T08:44:36.052Z,0.51
2023-04-05T08:45:36.097Z,0.51
2023-04-05T08:46:36.037Z,0.52
2023-04-05T08:47:36.075Z,0.51
2023-04-05T08:48:36.431Z,0.51
2023-04-05T08:49:35.997Z,0.51
2023-04-05T08:50:36.024Z,0.52
2023-04-05T08:51:35.992Z,0.50
2023-04-05T08:52:35.999Z,0.51
2023-04-05T08:53:36.002Z,0.51
2023-04-05T08:54:35.971Z,0.51
2023-04-05T08:55:36.009Z,0.50
2023-04-05T08:56:35.990Z,0.51
2023-04-05T08:57:35.968Z,0.51
2023-04-05T08:58:35.947Z,0.52
2023-04-05T08:59:36.029Z,0.51
2023-04-05T09:00:35.926Z,0.51
2023-04-05T09:01:36.000Z,0.51
2023-04-05T09:02:35.988Z,0.52
2023-04-05T09:03:36.160Z,0.51
2023-04-05T09:04:35.920Z,0.51
2023-04-05T09:05:35.928Z,0.52
2023-04-05T09:06:35.893Z,0.52
2023-04-05T09:07:35.928Z,0.52
2023-04-05T09:08:35.890Z,0.52
2023-04-05T09:09:35.866Z,0.52
2023-04-05T09:10:35.869Z,0.52
2023-04-05T09:11:35.913Z,0.52
2023-04-05T09:12:35.865Z,0.52
2023-04-05T09:13:35.915Z,0.52
2023-04-05T09:14:36.617Z,0.52
2023-04-05T09:15:35.868Z,0.53
2023-04-05T09:16:35.853Z,0.52
2023-04-05T09:17:35.829Z,0.52
2023-04-05T09:18:35.854Z,0.53
2023-04-05T09:19:35.866Z,0.53
2023-04-05T09:20:35.804Z,0.53
2023-04-05T09:21:35.797Z,0.52
2023-04-05T09:22:35.782Z,0.52
2023-04-05T09:23:35.781Z,0.53
2023-04-05T09:24:35.794Z,0.54
2023-04-05T09:25:35.783Z,0.53
2023-04-05T09:26:35.884Z,0.52
2023-04-05T09:27:35.793Z,0.53
2023-04-05T09:28:35.749Z,0.53
2023-04-05T09:29:35.757Z,0.53
2023-04-05T09:30:35.727Z,0.52
2023-04-05T09:31:35.764Z,0.54
2023-04-05T09:32:35.770Z,0.53
2023-04-05T09:33:35.743Z,0.52
2023-04-05T09:34:35.713Z,0.53
2023-04-05T09:35:35.761Z,0.53
2023-04-05T09:36:35.758Z,0.53
2023-04-05T09:37:35.849Z,0.53
2023-04-05T09:38:35.876Z,0.54
2023-04-05T09:39:35.942Z,0.53
2023-04-05T09:40:35.998Z,0.53
2023-04-05T09:41:36.040Z,0.54
2023-04-05T09:42:36.129Z,0.53
2023-04-05T09:43:36.192Z,0.53
2023-04-05T09:44:37.083Z,0.53
2023-04-05T09:45:36.328Z,0.53
2023-04-05T09:46:36.581Z,0.53
2023-04-05T09:47:36.492Z,0.53
2023-04-05T09:48:36.527Z,0.53
2023-04-05T09:49:36.603Z,0.53
2023-04-05T09:50:36.650Z,0.53
2023-04-05T09:51:36.695Z,0.54
2023-04-05T09:52:36.771Z,0.53
2023-04-05T09:53:36.820Z,0.53
2023-04-05T09:54:36.946Z,0.53
2023-04-05T09:55:36.971Z,0.54
2023-04-05T09:56:37.217Z,0.54
2023-04-05T09:57:37.052Z,0.54
2023-04-05T09:58:37.123Z,0.53
2023-04-05T09:59:37.300Z,0.54
2023-04-05T10:00:37.207Z,0.54
2023-04-05T10:01:39.137Z,0.54
2023-04-05T10:02:37.284Z,0.54
2023-04-05T10:03:37.370Z,0.54
2023-04-05T10:04:37.278Z,0.54
2023-04-05T10:05:37.265Z,0.55
2023-04-05T10:06:37.356Z,0.54
2023-04-05T10:07:37.234Z,0.53
2023-04-05T10:08:37.236Z,0.54
2023-04-05T10:09:37.225Z,0.54
2023-04-05T10:10:37.280Z,0.54
2023-04-05T10:11:37.218Z,0.54
2023-04-05T10:12:37.218Z,0.54
2023-04-05T10:13:37.158Z,0.54
2023-04-05T10:14:37.153Z,0.55
2023-04-05T10:15:37.225Z,0.54
2023-04-05T10:16:37.323Z,0.53
2023-04-05T10:17:37.188Z,0.54
2023-04-05T10:18:37.134Z,0.54
2023-04-05T10:19:37.152Z,0.54
2023-04-05T10:20:37.145Z,0.53
2023-04-05T10:21:37.133Z,0.54
2023-04-05T10:22:38.117Z,0.54
2023-04-05T10:23:37.127Z,0.54
2023-04-05T10:24:37.104Z,0.54
2023-04-05T10:25:38.084Z,0.54
2023-04-05T10:26:38.099Z,0.55
2023-04-05T10:27:37.211Z,0.54
2023-04-05T10:28:37.261Z,0.54
2023-04-05T10:29:37.310Z,0.53
2023-04-05T10:30:37.397Z,0.54
2023-04-05T10:31:38.427Z,0.54
2023-04-05T10:32:37.484Z,0.54
2023-04-05T10:33:38.877Z,0.54
2023-04-05T10:34:37.493Z,0.55
2023-04-05T10:35:37.514Z,0.54
2023-04-05T10:36:37.510Z,0.54
2023-04-05T10:37:37.549Z,0.54
2023-04-05T10:38:37.483Z,0.54
2023-04-05T10:39:37.473Z,0.54
2023-04-05T10:40:37.476Z,0.54
2023-04-05T10:41:37.487Z,0.54
2023-04-05T10:42:37.502Z,0.54
2023-04-05T10:43:37.416Z,0.54
2023-04-05T10:44:37.454Z,0.54
2023-04-05T10:45:37.456Z,0.54
2023-04-05T10:46:37.421Z,0.53
2023-04-05T10:47:37.433Z,0.53
2023-04-05T10:48:37.396Z,0.53
2023-04-05T10:49:37.380Z,0.53
2023-04-05T10:50:37.403Z,0.53
2023-04-05T10:51:37.429Z,0.54
2023-04-05T10:52:37.381Z,0.52
2023-04-05T10:53:37.417Z,0.55
2023-04-05T10:54:37.614Z,0.54
2023-04-05T10:55:37.389Z,0.54
2023-04-05T10:56:37.476Z,0.53
2023-04-05T10:57:37.367Z,0.54
2023-04-05T10:58:37.308Z,0.53
2023-04-05T10:59:37.366Z,0.53
2023-04-05T11:00:38.134Z,0.52
2023-04-05T11:01:38.217Z,0.53
2023-04-05T11:02:37.318Z,0.54
2023-04-05T11:03:37.285Z,0.54
2023-04-05T11:04:40.181Z,0.54
2023-04-05T11:05:37.306Z,0.54
2023-04-05T11:06:37.278Z,0.53
2023-04-05T11:07:37.252Z,0.53
2023-04-05T11:08:37.302Z,0.54
2023-04-05T11:09:37.233Z,0.54
2023-04-05T11:10:37.257Z,0.53
2023-04-05T11:11:37.238Z,0.53
2023-04-05T11:12:37.215Z,0.53
2023-04-05T11:13:37.250Z,0.53
2023-04-05T11:14:37.310Z,0.54
2023-04-05T11:15:37.271Z,0.53
2023-04-05T11:16:37.263Z,0.54
2023-04-05T11:17:37.254Z,0.53
2023-04-05T11:18:37.207Z,0.53
2023-04-05T11:19:37.205Z,0.53
2023-04-05T11:20:37.188Z,0.53
2023-04-05T11:21:37.230Z,0.53
2023-04-05T11:22:37.189Z,0.53
2023-04-05T11:23:37.141Z,0.53
2023-04-05T11:24:38.021Z,0.52
2023-04-05T11:25:37.171Z,0.53
2023-04-05T11:26:37.238Z,0.53
2023-04-05T11:27:37.245Z,0.54
2023-04-05T11:28:37.313Z,0.53
2023-04-05T11:29:38.131Z,0.52
2023-04-05T11:30:37.370Z,0.54
2023-04-05T11:31:37.503Z,0.52
2023-04-05T11:32:38.371Z,0.53
2023-04-05T11:33:37.463Z,0.53
2023-04-05T11:34:37.534Z,0.53
2023-04-05T11:35:37.630Z,0.53
2023-04-05T11:36:38.176Z,0.53
2023-04-05T11:37:37.642Z,0.53
2023-04-05T11:38:37.664Z,0.52
2023-04-05T11:39:37.715Z,0.52
2023-04-05T11:40:37.765Z,0.52
2023-04-05T11:41:37.798Z,0.52
2023-04-05T11:42:37.868Z,0.52
2023-04-05T11:43:37.896Z,0.53
2023-04-05T11:44:37.892Z,0.51
2023-04-05T11:45:37.950Z,0.53
2023-04-05T11:46:38.119Z,0.53
2023-04-05T11:47:38.042Z,0.52
2023-04-05T11:48:38.105Z,0.52
2023-04-05T11:49:38.133Z,0.53
2023-04-05T11:50:38.262Z,0.52
2023-04-05T11:51:38.208Z,0.53
2023-04-05T11:52:38.273Z,0.53
2023-04-05T11:53:38.315Z,0.53
2023-04-05T11:54:38.345Z,0.52
2023-04-05T11:55:38.521Z,0.52
2023-04-05T11:56:38.440Z,0.53
2023-04-05T11:57:38.586Z,0.52
2023-04-05T11:58:38.521Z,0.53
2023-04-05T11:59:39.144Z,0.52
2023-04-05T12:00:38.729Z,0.51
2023-04-05T12:01:38.647Z,0.53
2023-04-05T12:02:38.771Z,0.52
2023-04-05T12:03:38.848Z,0.52
2023-04-05T12:04:39.671Z,0.52
2023-04-05T12:05:38.918Z,0.52
2023-04-05T12:06:39.126Z,0.52
2023-04-05T12:07:38.941Z,0.52
2023-04-05T12:08:39.035Z,0.52
2023-04-05T12:09:39.006Z,0.52
2023-04-05T12:10:39.097Z,0.52
2023-04-05T12:11:39.165Z,0.52
2023-04-05T12:12:39.165Z,0.52
2023-04-05T12:13:39.198Z,0.52
2023-04-05T12:14:39.262Z,0.51
2023-04-05T12:15:39.566Z,0.51
2023-04-05T12:16:39.466Z,0.51
2023-04-05T12:17:39.388Z,0.52
2023-04-05T12:18:39.466Z,0.52
2023-04-05T12:19:39.476Z,0.52
2023-04-05T12:20:39.544Z,0.51
2023-04-05T12:21:39.576Z,0.53
2023-04-05T12:22:39.736Z,0.52
2023-04-05T12:23:39.746Z,0.52
2023-04-05T12:24:39.755Z,0.51
2023-04-05T12:25:39.977Z,0.53
2023-04-05T12:26:40.504Z,0.53
2023-04-05T12:27:39.913Z,0.51
2023-04-05T12:28:39.939Z,0.51
2023-04-05T12:29:40.092Z,0.52
2023-04-05T12:30:40.068Z,0.50
2023-04-05T12:31:40.136Z,0.51
2023-04-05T12:32:40.182Z,0.51
2023-04-05T12:33:40.146Z,0.51
2023-04-05T12:34:40.253Z,0.52
2023-04-05T12:35:40.509Z,0.51
2023-04-05T12:36:40.292Z,0.51
2023-04-05T12:37:40.327Z,0.51
2023-04-05T12:38:40.430Z,0.51
2023-04-05T12:39:40.457Z,0.51
2023-04-05T12:40:40.469Z,0.51
2023-04-05T12:41:41.680Z,0.51
2023-04-05T12:42:40.597Z,0.52
2023-04-05T12:43:40.581Z,0.52
2023-04-05T12:44:40.673Z,0.51
2023-04-05T12:45:41.389Z,0.50
2023-04-05T12:46:40.787Z,0.51
2023-04-05T12:47:40.874Z,0.51
2023-04-05T12:48:40.833Z,0.52
2023-04-05T12:49:41.098Z,0.51
2023-04-05T12:50:41.025Z,0.51
2023-04-05T12:51:41.027Z,0.51
2023-04-05T12:52:41.010Z,0.52
2023-04-05T12:53:41.088Z,0.51
2023-04-05T12:54:41.687Z,0.51
2023-04-05T12:55:41.344Z,0.51
2023-04-05T12:56:41.207Z,0.50
2023-04-05T12:57:41.303Z,0.51
2023-04-05T12:58:41.313Z,0.52
2023-04-05T12:59:41.386Z,0.51
2023-04-05T13:00:41.449Z,0.52
2023-04-05T13:01:41.491Z,0.51
2023-04-05T13:02:41.597Z,0.51
2023-04-05T13:03:41.641Z,0.51
2023-04-05T13:04:41.644Z,0.53
2023-04-05T13:05:41.881Z,0.52
2023-04-05T13:06:41.665Z,0.51
2023-04-05T13:07:41.708Z,0.51
2023-04-05T13:08:41.804Z,0.51
2023-04-05T13:09:41.827Z,0.51
2023-04-05T13:10:41.851Z,0.51
2023-04-05T13:11:41.984Z,0.51
2023-04-05T13:12:42.012Z,0.52
2023-04-05T13:13:41.989Z,0.51
2023-04-05T13:14:42.071Z,0.50
2023-04-05T13:15:42.561Z,0.51
2023-04-05T13:16:42.206Z,0.52
2023-04-05T13:17:42.253Z,0.51
2023-04-05T13:18:42.282Z,0.50
2023-04-05T13:19:42.369Z,0.51
2023-04-05T13:20:42.435Z,0.51
2023-04-05T13:21:42.430Z,0.50
2023-04-05T13:22:42.476Z,0.51
2023-04-05T13:23:42.549Z,0.51
2023-04-05T13:24:42.547Z,0.51
2023-04-05T13:25:42.748Z,0.51
2023-04-05T13:26:42.659Z,0.51
2023-04-05T13:27:42.747Z,0.51
2023-04-05T13:28:42.735Z,0.52
2023-04-05T13:29:42.817Z,0.51
2023-04-05T13:30:43.851Z,0.52
2023-04-05T13:31:42.952Z,0.51
2023-04-05T13:32:42.996Z,0.51
2023-04-05T13:33:42.989Z,0.51
2023-04-05T13:34:43.033Z,0.51
2023-04-05T13:35:43.361Z,0.51
2023-04-05T13:36:43.193Z,0.51
2023-04-05T13:37:43.219Z,0.50
2023-04-05T13:38:43.275Z,0.51
2023-04-05T13:39:43.304Z,0.51
2023-04-05T13:40:43.367Z,0.51
2023-04-05T13:41:43.433Z,0.52
2023-04-05T13:42:43.486Z,0.51
2023-04-05T13:43:43.577Z,0.51
2023-04-05T13:44:43.600Z,0.50
2023-04-05T13:45:43.802Z,0.51
2023-04-05T13:46:44.262Z,0.51
2023-04-05T13:47:43.809Z,0.51
2023-04-05T13:48:43.834Z,0.52
2023-04-05T13:49:43.888Z,0.51
2023-04-05T13:50:44.015Z,0.51
2023-04-05T13:51:44.022Z,0.51
2023-04-05T13:52:44.071Z,0.51
2023-04-05T13:53:44.133Z,0.52
2023-04-05T13:54:44.163Z,0.52
2023-04-05T13:55:44.257Z,0.51
2023-04-05T13:56:44.459Z,0.51
2023-04-05T13:57:44.427Z,0.51
2023-04-05T13:58:45.291Z,0.51
2023-04-05T13:59:44.614Z,0.52
2023-04-05T14:00:44.791Z,0.51
2023-04-05T14:01:44.689Z,0.51
2023-04-05T14:02:44.732Z,0.52
2023-04-05T14:03:44.913Z,0.51
2023-04-05T14:04:44.793Z,0.51
2023-04-05T14:05:46.003Z,0.52
2023-04-05T14:06:44.917Z,0.52
2023-04-05T14:07:44.910Z,0.51
2023-04-05T14:08:44.870Z,0.50
2023-04-05T14:09:44.840Z,0.51
2023-04-05T14:10:44.920Z,0.51
2023-04-05T14:11:44.810Z,0.51
2023-04-05T14:12:44.961Z,0.51
2023-04-05T14:13:44.782Z,0.51
2023-04-05T14:14:44.785Z,0.51
2023-04-05T14:15:44.767Z,0.51
2023-04-05T14:16:44.876Z,0.50
2023-04-05T14:17:44.787Z,0.51
2023-04-05T14:18:44.770Z,0.52
2023-04-05T14:19:44.816Z,0.51
2023-04-05T14:20:44.739Z,0.51
2023-04-05T14:21:44.770Z,0.51
2023-04-05T14:22:44.737Z,0.51
2023-04-05T14:23:44.807Z,0.51
2023-04-05T14:24:44.697Z,0.51
2023-04-05T14:25:44.774Z,0.51
2023-04-05T14:26:44.744Z,0.51
2023-04-05T14:27:44.696Z,0.51
2023-04-05T14:28:44.666Z,0.51
2023-04-05T14:29:44.727Z,0.51
2023-04-05T14:30:44.710Z,0.51
2023-04-05T14:31:44.775Z,0.52
2023-04-05T14:32:44.732Z,0.51
2023-04-05T14:33:44.669Z,0.51
2023-04-05T14:34:44.682Z,0.51
2023-04-05T14:35:44.792Z,0.52
2023-04-05T14:36:44.668Z,0.51
2023-04-05T14:37:44.750Z,0.50
2023-04-05T14:38:44.609Z,0.51
2023-04-05T14:39:44.613Z,0.52
2023-04-05T14:40:44.672Z,0.50
2023-04-05T14:41:44.656Z,0.51
2023-04-05T14:42:49.267Z,0.51
2023-04-05T14:43:45.584Z,0.51
2023-04-05T14:44:44.582Z,0.52
2023-04-05T14:45:44.646Z,0.51
2023-04-05T14:46:44.592Z,0.51
2023-04-05T14:47:44.603Z,0.50
2023-04-05T14:48:44.586Z,0.51
2023-04-05T14:49:44.571Z,0.51
2023-04-05T14:50:44.554Z,0.52
2023-04-05T14:51:44.562Z,0.52
2023-04-05T14:52:44.544Z,0.52
2023-04-05T14:53:44.527Z,0.51
2023-04-05T14:54:44.528Z,0.52
2023-04-05T14:55:44.564Z,0.50
2023-04-05T14:56:44.544Z,0.51
2023-04-05T14:57:44.493Z,0.51
2023-04-05T14:58:44.472Z,0.51
2023-04-05T14:59:44.445Z,0.52
2023-04-05T15:00:44.466Z,0.51
2023-04-05T15:01:44.591Z,0.51
2023-04-05T15:02:45.403Z,0.51
2023-04-05T15:03:44.526Z,0.50
2023-04-05T15:04:44.452Z,0.52
2023-04-05T15:05:44.421Z,0.51
2023-04-05T15:06:44.439Z,0.51
2023-04-05T15:07:44.409Z,0.51
2023-04-05T15:08:44.392Z,0.51
2023-04-05T15:09:44.440Z,0.51
2023-04-05T15:10:44.441Z,0.50
2023-04-05T15:11:44.378Z,0.51
2023-04-05T15:12:44.443Z,0.52
2023-04-05T15:13:44.385Z,0.50
2023-04-05T15:14:44.465Z,0.52
2023-04-05T15:15:44.411Z,0.52
2023-04-05T15:16:44.602Z,0.51
2023-04-05T15:17:44.503Z,0.50
2023-04-05T15:18:44.456Z,0.52
2023-04-05T15:19:44.477Z,0.51
2023-04-05T15:20:44.545Z,0.52
2023-04-05T15:21:44.476Z,0.52
2023-04-05T15:22:44.525Z,0.52
2023-04-05T15:23:44.504Z,0.52
2023-04-05T15:24:44.509Z,0.52
2023-04-05T15:25:44.536Z,0.51
2023-04-05T15:26:44.573Z,0.51
2023-04-05T15:27:44.561Z,0.51
2023-04-05T15:28:44.583Z,0.50
2023-04-05T15:29:44.596Z,0.53
2023-04-05T15:30:44.591Z,0.52
2023-04-05T15:31:44.673Z,0.52
2023-04-05T15:32:44.678Z,0.52
2023-04-05T15:33:44.671Z,0.50
2023-04-05T15:34:44.643Z,0.52
2023-04-05T15:35:44.840Z,0.53
2023-04-05T15:36:44.678Z,0.52
2023-04-05T15:37:44.699Z,0.53
2023-04-05T15:38:46.718Z,0.53
2023-04-05T15:39:44.737Z,0.52
2023-04-05T15:40:44.750Z,0.52
2023-04-05T15:41:44.809Z,0.52
2023-04-05T15:42:45.704Z,0.51
2023-04-05T15:43:44.864Z,0.53
2023-04-05T15:44:44.941Z,0.53
2023-04-05T15:45:44.880Z,0.53
2023-04-05T15:46:44.980Z,0.53
2023-04-05T15:47:45.014Z,0.52
2023-04-05T15:48:44.948Z,0.53
2023-04-05T15:49:44.976Z,0.52
2023-04-05T15:50:45.001Z,0.53
2023-04-05T15:51:45.001Z,0.53
2023-04-05T15:52:45.015Z,0.54
2023-04-05T15:53:45.041Z,0.52
2023-04-05T15:54:45.129Z,0.53
2023-04-05T15:55:45.091Z,0.52
2023-04-05T15:56:45.128Z,0.52
2023-04-05T15:57:45.139Z,0.52
2023-04-05T15:58:45.184Z,0.53
2023-04-05T15:59:45.340Z,0.51
2023-04-05T16:00:45.584Z,0.52
2023-04-05T16:01:45.334Z,0.51
2023-04-05T16:02:45.379Z,0.51
2023-04-05T16:03:45.433Z,0.51
2023-04-05T16:04:45.408Z,0.51
2023-04-05T16:05:45.437Z,0.52
2023-04-05T16:06:45.477Z,0.53
2023-04-05T16:07:45.573Z,0.51
2023-04-05T16:08:45.538Z,0.53
2023-04-05T16:09:45.548Z,0.52
2023-04-05T16:10:45.613Z,0.53
2023-04-05T16:11:45.619Z,0.51
2023-04-05T16:12:45.861Z,0.52
2023-04-05T16:13:45.767Z,0.51
2023-04-05T16:14:45.792Z,0.52
2023-04-05T16:15:45.817Z,0.51
2023-04-05T16:16:53.632Z,0.52
2023-04-05T16:17:46.842Z,0.52
2023-04-05T16:18:46.779Z,0.52
2023-04-05T16:19:45.833Z,0.52
2023-04-05T16:20:45.800Z,0.51
2023-04-05T16:21:45.827Z,0.51
2023-04-05T16:22:45.831Z,0.52
2023-04-05T16:23:46.113Z,0.51
2023-04-05T16:24:45.878Z,0.51
2023-04-05T16:25:46.052Z,0.52
2023-04-05T16:26:46.036Z,0.52
2023-04-05T16:27:46.080Z,0.51
2023-04-05T16:28:46.062Z,0.51
2023-04-05T16:29:46.116Z,0.52
2023-04-05T16:30:48.003Z,0.52
2023-04-05T16:31:46.327Z,0.52
2023-04-05T16:32:46.381Z,0.51
2023-04-05T16:33:46.320Z,0.51
2023-04-05T16:34:46.373Z,0.51
2023-04-05T16:35:46.463Z,0.52
2023-04-05T16:36:46.517Z,0.52
2023-04-05T16:37:46.482Z,0.52
2023-04-05T16:38:47.418Z,0.52
2023-04-05T16:39:46.566Z,0.51
2023-04-05T16:40:46.751Z,0.51
2023-04-05T16:41:46.667Z,0.53
2023-04-05T16:42:46.710Z,0.52
2023-04-05T16:43:46.788Z,0.52
2023-04-05T16:44:46.950Z,0.52
2023-04-05T16:45:46.880Z,0.52
2023-04-05T16:46:46.937Z,0.52
2023-04-05T16:47:47.035Z,0.53
2023-04-05T16:48:47.036Z,0.53
2023-04-05T16:49:47.072Z,0.53
2023-04-05T16:50:47.132Z,0.51
2023-04-05T16:51:47.185Z,0.52
2023-04-05T16:52:47.224Z,0.53
2023-04-05T16:53:47.287Z,0.52
2023-04-05T16:54:47.335Z,0.52
2023-04-05T16:55:47.424Z,0.52
2023-04-05T16:56:47.460Z,0.52
2023-04-05T16:57:47.495Z,0.52
2023-04-05T16:58:47.602Z,0.52
2023-04-05T16:59:47.684Z,0.51
2023-04-05T17:00:47.667Z,0.51
2023-04-05T17:01:47.830Z,0.52
2023-04-05T17:02:47.858Z,0.51
2023-04-05T17:03:47.906Z,0.52
2023-04-05T17:04:47.895Z,0.51
2023-04-05T17:05:47.988Z,0.50
2023-04-05T17:06:48.043Z,0.51
2023-04-05T17:07:48.057Z,0.51
2023-04-05T17:08:48.279Z,0.52
2023-04-05T17:09:48.216Z,0.52
2023-04-05T17:10:48.220Z,0.51
2023-04-05T17:11:48.336Z,0.52
2023-04-05T17:12:48.337Z,0.52
2023-04-05T17:13:48.472Z,0.52
2023-04-05T17:14:48.443Z,0.52
2023-04-05T17:15:48.683Z,0.53
2023-04-05T17:16:48.562Z,0.51
2023-04-05T17:19:07.337Z,0.50
2023-04-05T17:20:07.389Z,0.50
2023-04-05T17:21:07.583Z,0.50
2023-04-05T17:22:08.465Z,0.50
2023-04-05T17:23:07.549Z,0.50
2023-04-05T17:24:07.667Z,0.50
2023-04-05T17:25:07.676Z,0.51
2023-04-05T17:26:07.758Z,0.51
2023-04-05T17:27:07.720Z,0.51
2023-04-05T17:28:07.737Z,0.51
2023-04-05T17:29:08.881Z,0.52
2023-04-05T17:30:07.812Z,0.52
2023-04-05T17:31:07.930Z,0.53
2023-04-05T17:32:07.841Z,0.53
2023-04-05T17:33:07.926Z,0.53
2023-04-05T17:34:07.907Z,0.53
2023-04-05T17:35:07.950Z,0.53
2023-04-05T17:36:07.965Z,0.52
2023-04-05T17:37:08.010Z,0.52
2023-04-05T17:38:07.896Z,0.54
2023-04-05T17:39:07.928Z,0.52
2023-04-05T17:40:08.009Z,0.54
2023-04-05T17:41:08.057Z,0.52
2023-04-05T17:42:08.033Z,0.52
2023-04-05T17:43:08.109Z,0.53
2023-04-05T17:44:08.900Z,0.53
2023-04-05T17:45:08.038Z,0.53
2023-04-05T17:46:08.049Z,0.54
2023-04-05T17:47:09.550Z,0.52
2023-04-05T17:48:08.334Z,0.52
2023-04-05T17:49:08.121Z,0.54
2023-04-05T17:50:08.280Z,0.54
2023-04-05T17:51:08.163Z,0.53
2023-04-05T17:52:09.013Z,0.54
2023-04-05T17:53:08.161Z,0.53
2023-04-05T17:54:08.156Z,0.54
2023-04-05T17:55:10.892Z,0.54
2023-04-05T17:56:08.139Z,0.55
2023-04-05T17:57:08.095Z,0.54
2023-04-05T17:58:08.906Z,0.56
2023-04-05T17:59:08.497Z,0.54
2023-04-05T18:00:08.886Z,0.56
2023-04-05T18:01:08.081Z,0.52
2023-04-05T18:02:08.171Z,0.55
2023-04-05T18:03:08.953Z,0.53
2023-04-05T18:04:10.170Z,0.53
2023-04-05T18:05:08.117Z,0.54
2023-04-05T18:06:08.072Z,0.54
2023-04-05T18:07:08.088Z,0.54
2023-04-05T18:08:08.072Z,0.54
2023-04-05T18:09:08.334Z,0.52
2023-04-05T18:10:08.036Z,0.53
2023-04-05T18:11:08.048Z,0.53
2023-04-05T18:12:08.094Z,0.56
2023-04-05T18:13:08.151Z,0.53
2023-04-05T18:14:08.013Z,0.53
2023-04-05T18:15:08.074Z,0.54
2023-04-05T18:16:08.183Z,0.54
2023-04-05T18:17:08.038Z,0.55
2023-04-05T18:18:08.030Z,0.52
2023-04-05T18:19:08.109Z,0.55
2023-04-05T18:20:08.089Z,0.55
2023-04-05T18:21:07.993Z,0.56
2023-04-05T18:22:08.178Z,0.52
2023-04-05T18:23:07.976Z,0.56
2023-04-05T18:24:07.916Z,0.55
2023-04-05T18:25:07.898Z,0.56
2023-04-05T18:26:07.905Z,0.52
2023-04-05T18:27:07.900Z,0.55
2023-04-05T18:28:21.399Z,0.58
2023-04-05T18:29:08.881Z,0.58
2023-04-05T18:30:07.863Z,0.57
2023-04-05T18:31:07.869Z,0.55
2023-04-05T18:32:07.908Z,0.56
2023-04-05T18:33:07.879Z,0.55
2023-04-05T18:34:08.438Z,0.56
2023-04-05T18:35:07.885Z,0.56
2023-04-05T18:36:07.858Z,0.56
2023-04-05T18:37:07.881Z,0.58
2023-04-05T18:38:07.920Z,0.54
2023-04-05T18:39:08.071Z,0.54
2023-04-05T18:40:07.820Z,0.55
2023-04-05T18:41:07.944Z,0.53
2023-04-05T18:42:07.800Z,0.56
2023-04-05T18:43:07.776Z,0.56
2023-04-05T18:44:07.822Z,0.57
2023-04-05T18:45:07.816Z,0.55
2023-04-05T18:46:07.879Z,0.55
2023-04-05T18:47:07.765Z,0.54
2023-04-05T18:48:07.863Z,0.56
2023-04-05T18:49:08.045Z,0.56
2023-04-05T18:50:07.736Z,0.52
2023-04-05T18:51:07.720Z,0.56
2023-04-05T18:52:07.747Z,0.55
2023-04-05T18:53:08.418Z,0.57
2023-04-05T18:54:07.723Z,0.56
2023-04-05T18:55:07.716Z,0.57
2023-04-05T18:56:07.779Z,0.58
2023-04-05T18:57:07.722Z,0.57
2023-04-05T18:58:07.742Z,0.56
2023-04-05T18:59:08.108Z,0.55
2023-04-05T19:00:07.680Z,0.56
2023-04-05T19:01:08.455Z,0.57
2023-04-05T19:02:07.794Z,0.54
2023-04-05T19:03:07.880Z,0.57
2023-04-05T19:04:07.766Z,0.55
2023-04-05T19:05:07.810Z,0.56
2023-04-05T19:06:07.744Z,0.56
2023-04-05T19:07:07.798Z,0.55
2023-04-05T19:08:07.798Z,0.58
2023-04-05T19:09:08.024Z,0.57
2023-04-05T19:10:07.844Z,0.54
2023-04-05T19:11:07.829Z,0.55
2023-04-05T19:12:07.896Z,0.56
2023-04-05T19:13:08.551Z,0.57
2023-04-05T19:14:07.917Z,0.56
2023-04-05T19:15:07.939Z,0.56
2023-04-05T19:16:08.017Z,0.56
2023-04-05T19:17:09.315Z,0.57
2023-04-05T19:18:08.114Z,0.54
2023-04-05T19:19:08.041Z,0.57
2023-04-05T19:20:07.964Z,0.56
2023-04-05T19:21:07.969Z,0.56
2023-04-05T19:22:08.002Z,0.56
2023-04-05T19:23:08.004Z,0.58
2023-04-05T19:24:08.034Z,0.56
2023-04-05T19:25:08.019Z,0.55
2023-04-05T19:26:08.057Z,0.57
2023-04-05T19:27:08.090Z,0.57
2023-04-05T19:28:08.048Z,0.59
2023-04-05T19:29:08.401Z,0.57
2023-04-05T19:30:09.928Z,0.55
2023-04-05T19:31:08.194Z,0.57
2023-04-05T19:32:08.113Z,0.55
2023-04-05T19:33:08.208Z,0.59
2023-04-05T19:34:08.189Z,0.59
2023-04-05T19:35:08.168Z,0.58
2023-04-05T19:36:08.263Z,0.57
2023-04-05T19:37:08.204Z,0.59
2023-04-05T19:38:08.260Z,0.56
2023-04-05T19:39:08.475Z,0.58
2023-04-05T19:40:08.292Z,0.55
2023-04-05T19:41:08.251Z,0.59
2023-04-05T19:42:08.304Z,0.58
2023-04-05T19:43:08.336Z,0.58
2023-04-05T19:44:08.382Z,0.58
2023-04-05T19:45:08.324Z,0.57
2023-04-05T19:46:08.392Z,0.60
2023-04-05T19:47:08.481Z,0.58
2023-04-05T19:48:08.565Z,0.57
2023-04-05T19:49:08.531Z,0.57
2023-04-05T19:50:12.568Z,0.56
2023-04-05T19:51:08.471Z,0.56
2023-04-05T19:52:08.478Z,0.56
2023-04-05T19:53:08.529Z,0.57
2023-04-05T19:54:08.433Z,0.57
2023-04-05T19:55:08.481Z,0.58
2023-04-05T19:56:08.468Z,0.58
2023-04-05T19:57:08.432Z,0.58
2023-04-05T19:58:08.400Z,0.58
2023-04-05T19:59:08.617Z,0.59
2023-04-05T20:00:08.377Z,0.58
2023-04-05T20:01:08.395Z,0.57
2023-04-05T20:02:10.056Z,0.59
2023-04-05T20:03:08.407Z,0.58
2023-04-05T20:04:08.373Z,0.59
2023-04-05T20:05:08.335Z,0.58
2023-04-05T20:06:08.363Z,0.59
2023-04-05T20:07:08.428Z,0.59
2023-04-05T20:08:08.378Z,0.59
2023-04-05T20:09:08.532Z,0.59